Check out our new BloomSky Weather System.

Active alerts


No alerts


Thunder radar  blitzortung!


Rain radar more information rain snow radar


Visit our other weather sites:

Template documentation
and downloads

And another site



Weather Underground History page Text

Daily Summary for February 16, 2017 Units:  Metric    English   Both
« Previous Day
Next Day »
Daily Weekly Monthly Yearly Custom
  High: Low: Average:
Temperature: 20.9 °C 3.1 °C 12.2 °C
Dew Point: 8 °C 1.1 °C 3.7 °C
Humidity: 96 % 28 % 62 %
Wind Speed: 9.7 km/h 0 km/h 1.4 km/h
Wind Gust: 16.1 km/h - -
Wind:- - South
Pressure: 1021.6 hPa 1016.1 hPa -
Precipitation: 0 mm    
Historical Graphs
 
 
Tabular Data for February 16, 2017
Time Temperature Dew Point Pressure Wind Wind Speed Wind Gust Humidity Rainfall Rate (Hourly)
00:03 7.6 °C 3.3 °C 1020.5 hPa Calm   1.6 km/h 74 % 0 mm
00:08 7.6 °C 3.1 °C 1020.5 hPa Calm   1.6 km/h 73 % 0 mm
00:13 7.4 °C 2.9 °C 1020.5 hPa Calm   1.6 km/h 73 % 0 mm
00:18 7.3 °C 3 °C 1020.9 hPa Calm   1.6 km/h 74 % 0 mm
00:23 7.1 °C 3 °C 1020.9 hPa Calm   1.6 km/h 75 % 0 mm
00:28 6.9 °C 2.8 °C 1020.9 hPa Calm   1.6 km/h 75 % 0 mm
00:33 6.9 °C 3 °C 1020.9 hPa Calm     76 % 0 mm
00:38 6.8 °C 2.9 °C 1021.2 hPa Calm   1.6 km/h 76 % 0 mm
00:43 6.7 °C 3 °C 1021.2 hPa Calm   1.6 km/h 77 % 0 mm
00:48 6.7 °C 3.1 °C 1021.2 hPa Calm   1.6 km/h 78 % 0 mm
00:53 6.6 °C 3 °C 1021.2 hPa Calm     78 % 0 mm
00:58 6.6 °C 3.2 °C 1021.2 hPa Calm     79 % 0 mm
01:03 6.5 °C 3.3 °C 1021.2 hPa Calm     80 % 0 mm
01:08 6.4 °C 3.4 °C 1021.2 hPa Calm     81 % 0 mm
01:13 6.3 °C 3.3 °C 1021.6 hPa Calm     81 % 0 mm
01:18 6.3 °C 3.5 °C 1021.2 hPa Calm     82 % 0 mm
01:28 6.1 °C 3.3 °C 1021.6 hPa Calm     82 % 0 mm
01:33 6 °C 3.3 °C 1021.2 hPa Calm     83 % 0 mm
01:38 5.9 °C 3.2 °C 1021.6 hPa Calm     83 % 0 mm
01:43 5.7 °C 3 °C 1021.2 hPa Calm     83 % 0 mm
01:48 5.7 °C 3.4 °C 1021.2 hPa Calm     85 % 0 mm
01:53 5.7 °C 3.4 °C 1021.2 hPa Calm     85 % 0 mm
01:58 5.6 °C 3.3 °C 1021.2 hPa Calm     85 % 0 mm
02:03 5.4 °C 3.2 °C 1021.2 hPa Calm     86 % 0 mm
02:08 5.3 °C 3.1 °C 1020.9 hPa Calm     86 % 0 mm
02:13 5.3 °C 3.3 °C 1020.9 hPa Calm     87 % 0 mm
02:18 5.4 °C 3.4 °C 1020.9 hPa Calm     87 % 0 mm
02:23 5.3 °C 3.3 °C 1020.9 hPa Calm     87 % 0 mm
02:28 5.3 °C 3.5 °C 1020.9 hPa Calm     88 % 0 mm
02:33 5.2 °C 3.4 °C 1020.9 hPa Calm     88 % 0 mm
02:38 5.1 °C 3.3 °C 1020.9 hPa Calm     88 % 0 mm
02:44 4.9 °C 3.2 °C 1020.9 hPa Calm     89 % 0 mm
02:49 4.9 °C 3.2 °C 1020.9 hPa Calm     89 % 0 mm
02:54 4.9 °C 3.2 °C 1020.9 hPa Calm     89 % 0 mm
02:59 4.8 °C 3.1 °C 1020.9 hPa Calm     89 % 0 mm
03:04 4.8 °C 3.3 °C 1020.9 hPa Calm     90 % 0 mm
03:09 4.9 °C 3.4 °C 1020.9 hPa Calm     90 % 0 mm
03:14 4.9 °C 3.4 °C 1020.9 hPa Calm     90 % 0 mm
03:19 4.8 °C 3.3 °C 1020.5 hPa Calm     90 % 0 mm
03:24 4.7 °C 3.2 °C 1020.5 hPa Calm     90 % 0 mm
03:29 4.6 °C 3.1 °C 1020.5 hPa Calm     90 % 0 mm
03:34 4.4 °C 2.9 °C 1020.5 hPa Calm     90 % 0 mm
03:39 4.4 °C 3.1 °C 1020.5 hPa Calm     91 % 0 mm
03:44 4.4 °C 3.2 °C 1020.5 hPa Calm     92 % 0 mm
03:49 4.4 °C 3.2 °C 1020.5 hPa Calm     92 % 0 mm
03:54 4.4 °C 3.2 °C 1020.5 hPa Calm   1.6 km/h 92 % 0 mm
03:59 4.4 °C 3.2 °C 1020.2 hPa Calm   1.6 km/h 92 % 0 mm
04:04 4.5 °C 3.3 °C 1020.2 hPa Calm   1.6 km/h 92 % 0 mm
04:09 4.5 °C 3.3 °C 1020.2 hPa Calm   1.6 km/h 92 % 0 mm
04:14 4.3 °C 3 °C 1020.2 hPa Calm   1.6 km/h 91 % 0 mm
04:19 4.1 °C 2.9 °C 1020.2 hPa Calm   1.6 km/h 92 % 0 mm
04:24 4.1 °C 2.9 °C 1020.2 hPa Calm     92 % 0 mm
04:29 3.9 °C 2.7 °C 1020.2 hPa Calm     92 % 0 mm
04:34 3.8 °C 2.6 °C 1020.2 hPa Calm     92 % 0 mm
04:39 3.8 °C 2.8 °C 1020.2 hPa Calm     93 % 0 mm
04:44 3.7 °C 2.7 °C 1020.2 hPa Calm     93 % 0 mm
04:49 3.8 °C 2.8 °C 1020.2 hPa Calm     93 % 0 mm
04:54 3.8 °C 2.8 °C 1020.2 hPa Calm     93 % 0 mm
04:59 3.7 °C 2.7 °C 1020.2 hPa Calm     93 % 0 mm
05:04 3.6 °C 2.7 °C 1020.2 hPa Calm     94 % 0 mm
05:09 3.6 °C 2.7 °C 1020.2 hPa Calm     94 % 0 mm
05:14 3.8 °C 2.9 °C 1020.2 hPa WNW 1.6 km/h   94 % 0 mm
05:19 3.9 °C 3 °C 1020.2 hPa Calm   1.6 km/h 94 % 0 mm
05:24 3.9 °C 3 °C 1020.2 hPa Calm   1.6 km/h 94 % 0 mm
05:29 3.9 °C 2.9 °C 1020.2 hPa Calm   1.6 km/h 93 % 0 mm
05:34 3.8 °C 2.9 °C 1020.2 hPa Calm   1.6 km/h 94 % 0 mm
05:39 3.8 °C 2.9 °C 1020.2 hPa Calm     94 % 0 mm
05:44 3.8 °C 2.9 °C 1020.2 hPa Calm     94 % 0 mm
05:49 3.7 °C 2.8 °C 1020.2 hPa Calm     94 % 0 mm
05:54 3.6 °C 2.7 °C 1020.5 hPa Calm     94 % 0 mm
05:59 3.6 °C 2.7 °C 1020.5 hPa Calm     94 % 0 mm
06:04 3.5 °C 2.6 °C 1020.5 hPa Calm     94 % 0 mm
06:09 3.4 °C 2.5 °C 1020.5 hPa Calm     94 % 0 mm
06:14 3.3 °C 2.4 °C 1020.5 hPa Calm     94 % 0 mm
06:19 3.1 °C 2.2 °C 1020.5 hPa Calm     94 % 0 mm
06:24 3.1 °C 2.2 °C 1020.5 hPa Calm     94 % 0 mm
06:29 3.1 °C 2.2 °C 1020.5 hPa Calm     94 % 0 mm
06:34 3.1 °C 2.4 °C 1020.5 hPa Calm     95 % 0 mm
06:39 3.2 °C 2.5 °C 1020.5 hPa Calm     95 % 0 mm
06:44 3.3 °C 2.6 °C 1020.5 hPa Calm     95 % 0 mm
06:49 3.4 °C 2.7 °C 1020.9 hPa Calm     95 % 0 mm
06:54 3.4 °C 2.7 °C 1020.9 hPa Calm     95 % 0 mm
06:59 3.6 °C 2.9 °C 1021.2 hPa Calm     95 % 0 mm
07:04 3.5 °C 2.6 °C 1021.2 hPa Calm     94 % 0 mm
07:09 3.5 °C 2.8 °C 1021.2 hPa Calm     95 % 0 mm
07:14 3.5 °C 2.8 °C 1020.9 hPa Calm     95 % 0 mm
07:20 3.6 °C 2.9 °C 1021.2 hPa Calm     95 % 0 mm
07:25 3.7 °C 3 °C 1020.9 hPa Calm     95 % 0 mm
07:30 3.6 °C 2.7 °C 1020.9 hPa Calm     94 % 0 mm
07:35 3.6 °C 2.9 °C 1020.9 hPa Calm     95 % 0 mm
07:40 3.7 °C 3 °C 1020.9 hPa Calm     95 % 0 mm
07:45 3.9 °C 3.2 °C 1021.2 hPa Calm     95 % 0 mm
07:50 4 °C 3.3 °C 1021.2 hPa Calm     95 % 0 mm
07:55 4.3 °C 3.6 °C 1021.2 hPa Calm     95 % 0 mm
08:00 4.8 °C 4.2 °C 1021.2 hPa Calm     96 % 0 mm
08:05 5.6 °C 5 °C 1021.2 hPa Calm     96 % 0 mm
08:10 6.1 °C 5.5 °C 1021.2 hPa Calm   1.6 km/h 96 % 0 mm
08:15 6.9 °C 6.3 °C 1021.2 hPa Calm   1.6 km/h 96 % 0 mm
08:20 7.6 °C 6.9 °C 1021.2 hPa Calm   1.6 km/h 95 % 0 mm
08:25 8.3 °C 7.5 °C 1021.2 hPa Calm   1.6 km/h 95 % 0 mm
08:30 8.7 °C 7.3 °C 1021.2 hPa Calm   1.6 km/h 91 % 0 mm
08:35 8.7 °C 6.8 °C 1021.2 hPa Calm   1.6 km/h 88 % 0 mm
08:40 9.1 °C 7.2 °C 1021.2 hPa Calm   1.6 km/h 88 % 0 mm
08:46 9.8 °C 7.6 °C 1021.2 hPa Calm   1.6 km/h 86 % 0 mm
08:51 10.7 °C 7.9 °C 1021.2 hPa Calm   1.6 km/h 83 % 0 mm
08:56 11.2 °C 7.3 °C 1021.6 hPa Calm   1.6 km/h 77 % 0 mm
09:01 11.9 °C 8 °C 1021.6 hPa Calm   1.6 km/h 77 % 0 mm
09:06 12.3 °C 7.4 °C 1021.6 hPa Calm   1.6 km/h 72 % 0 mm
09:11 12.7 °C 7.8 °C 1021.6 hPa SSW 1.6 km/h 1.6 km/h 72 % 0 mm
09:16 13.2 °C 7.4 °C 1021.6 hPa SW 1.6 km/h 1.6 km/h 68 % 0 mm
09:21 13.6 °C 6.7 °C 1021.6 hPa SE 1.6 km/h 3.2 km/h 63 % 0 mm
09:26 13.9 °C 6.7 °C 1021.6 hPa East 1.6 km/h 3.2 km/h 62 % 0 mm
09:31 14.1 °C 7.4 °C 1021.6 hPa Calm   3.2 km/h 64 % 0 mm
09:36 14.3 °C 6.4 °C 1021.6 hPa SSW 4.8 km/h 4.8 km/h 59 % 0 mm
09:41 14.2 °C 5.8 °C 1021.6 hPa Calm   6.4 km/h 57 % 0 mm
09:46 14.4 °C 6 °C 1021.6 hPa Calm   6.4 km/h 57 % 0 mm
09:51 14.9 °C 5.7 °C 1021.6 hPa South 3.2 km/h 6.4 km/h 54 % 0 mm
10:01 15.3 °C 5.2 °C 1021.2 hPa SW 6.4 km/h 6.4 km/h 51 % 0 mm
10:06 15.3 °C 3.7 °C 1021.2 hPa ESE 1.6 km/h 8 km/h 46 % 0 mm
10:11 15.5 °C 4.5 °C 1021.2 hPa Calm   8 km/h 48 % 0 mm
10:16 15.7 °C 4.1 °C 1021.2 hPa SSW 1.6 km/h 8 km/h 46 % 0 mm
10:21 15.8 °C 3.2 °C 1021.2 hPa SE 4.8 km/h 6.4 km/h 43 % 0 mm
10:26 15.8 °C 3.2 °C 1021.2 hPa Calm   6.4 km/h 43 % 0 mm
10:31 16.2 °C 4.3 °C 1020.9 hPa Calm   8 km/h 45 % 0 mm
10:36 16.7 °C 3.7 °C 1020.9 hPa SSE 1.6 km/h 8 km/h 42 % 0 mm
10:41 16.7 °C 3.4 °C 1020.5 hPa WNW 4.8 km/h 8 km/h 41 % 0 mm
10:46 16.6 °C 2.6 °C 1020.5 hPa Calm   8 km/h 39 % 0 mm
10:51 16.4 °C 3.1 °C 1020.5 hPa SW 1.6 km/h 8 km/h 41 % 0 mm
10:56 16.8 °C 3.5 °C 1020.5 hPa SSE 3.2 km/h 6.4 km/h 41 % 0 mm
11:02 17.3 °C 3.2 °C 1020.5 hPa SW 1.6 km/h 6.4 km/h 39 % 0 mm
11:07 17.5 °C 3.7 °C 1020.5 hPa SSE 1.6 km/h 6.4 km/h 40 % 0 mm
11:12 17.7 °C 4.3 °C 1020.5 hPa SSW 6.4 km/h 6.4 km/h 41 % 0 mm
11:17 17.5 °C 3 °C 1020.5 hPa SSE 1.6 km/h 8 km/h 38 % 0 mm
11:22 17.3 °C 2.8 °C 1020.2 hPa ESE 3.2 km/h 8 km/h 38 % 0 mm
11:27 16.9 °C 2.5 °C 1020.2 hPa NNW 1.6 km/h 8 km/h 38 % 0 mm
11:32 17.1 °C 3.4 °C 1020.2 hPa Calm   6.4 km/h 40 % 0 mm
11:37 17.6 °C 4.2 °C 1020.2 hPa NNW 1.6 km/h 6.4 km/h 41 % 0 mm
11:42 17.8 °C 2.5 °C 1020.2 hPa ESE 6.4 km/h 8 km/h 36 % 0 mm
11:47 17.5 °C 2.6 °C 1019.9 hPa SE 3.2 km/h 12.9 km/h 37 % 0 mm
11:52 17.7 °C 3.2 °C 1019.9 hPa SSW 8 km/h 12.9 km/h 38 % 0 mm
11:57 17.7 °C 2 °C 1019.9 hPa SW 3.2 km/h 12.9 km/h 35 % 0 mm
12:02 17.7 °C 2 °C 1019.9 hPa ESE 4.8 km/h 11.3 km/h 35 % 0 mm
12:07 17.6 °C 2.3 °C 1019.9 hPa ESE 3.2 km/h 11.3 km/h 36 % 0 mm
12:12 17.7 °C 2.4 °C 1019.9 hPa SSE 3.2 km/h 12.9 km/h 36 % 0 mm
12:17 17.9 °C 2.6 °C 1019.5 hPa SE 4.8 km/h 12.9 km/h 36 % 0 mm
12:22 17.7 °C 2.4 °C 1019.9 hPa SSE 8 km/h 12.9 km/h 36 % 0 mm
12:27 17.9 °C 3.4 °C 1019.5 hPa South 9.7 km/h 12.9 km/h 38 % 0 mm
12:32 18.3 °C 3.4 °C 1019.9 hPa SW 6.4 km/h 11.3 km/h 37 % 0 mm
12:37 18.7 °C 1.7 °C 1019.9 hPa WNW 1.6 km/h 11.3 km/h 32 % 0 mm
12:42 18.6 °C 2.4 °C 1019.5 hPa SE 8 km/h 12.9 km/h 34 % 0 mm
12:47 18.5 °C 3.5 °C 1019.5 hPa SW 1.6 km/h 16.1 km/h 37 % 0 mm
12:52 18.7 °C 2.5 °C 1019.2 hPa ESE 4.8 km/h 16.1 km/h 34 % 0 mm
12:57 18.4 °C 2.3 °C 1018.8 hPa SSE 4.8 km/h 16.1 km/h 34 % 0 mm
13:02 18.5 °C 3.1 °C 1018.8 hPa South 1.6 km/h 11.3 km/h 36 % 0 mm
13:07 18.9 °C 3.9 °C 1018.5 hPa South 6.4 km/h 11.3 km/h 37 % 0 mm
13:12 19.3 °C 3.5 °C 1018.5 hPa SW 4.8 km/h 9.7 km/h 35 % 0 mm
13:17 19.5 °C 3.2 °C 1018.5 hPa WSW 1.6 km/h 11.3 km/h 34 % 0 mm
13:22 19.2 °C 1.7 °C 1018.5 hPa NNW 3.2 km/h 11.3 km/h 31 % 0 mm
13:23 19.1 °C 2 °C 1018.5 hPa NW 6.4 km/h 11.3 km/h 32 % 0 mm
13:28 18.8 °C 2.2 °C 1018.5 hPa WSW 3.2 km/h 11.3 km/h 33 % 0 mm
13:33 19.1 °C 2.4 °C 1018.2 hPa Calm   9.7 km/h 33 % 0 mm
13:38 19.4 °C 2.7 °C 1018.2 hPa SW 9.7 km/h 9.7 km/h 33 % 0 mm
13:43 19.4 °C 2.3 °C 1018.2 hPa WNW 1.6 km/h 12.9 km/h 32 % 0 mm
13:49 19.5 °C 1.9 °C 1017.8 hPa East 1.6 km/h 12.9 km/h 31 % 0 mm
13:54 19.7 °C 3 °C 1017.8 hPa WNW 3.2 km/h 12.9 km/h 33 % 0 mm
13:59 19.7 °C 3 °C 1017.8 hPa SW 4.8 km/h 9.7 km/h 33 % 0 mm
14:04 19.6 °C 1.5 °C 1017.8 hPa SW 1.6 km/h 11.3 km/h 30 % 0 mm
14:09 19.7 °C 1.6 °C 1017.5 hPa ESE 3.2 km/h 11.3 km/h 30 % 0 mm
14:14 19.6 °C 1.1 °C 1017.5 hPa ESE 3.2 km/h 12.9 km/h 29 % 0 mm
14:19 19.7 °C 2.1 °C 1017.5 hPa WSW 1.6 km/h 12.9 km/h 31 % 0 mm
14:24 19.7 °C 1.2 °C 1017.5 hPa ESE 3.2 km/h 12.9 km/h 29 % 0 mm
14:29 19.6 °C 2.5 °C 1017.5 hPa SSE 3.2 km/h 12.9 km/h 32 % 0 mm
14:34 19.8 °C 3.5 °C 1017.5 hPa WSW 3.2 km/h 11.3 km/h 34 % 0 mm
14:39 20 °C 1.9 °C 1017.2 hPa WNW 1.6 km/h 8 km/h 30 % 0 mm
14:44 19.8 °C 1.2 °C 1017.2 hPa WNW 3.2 km/h 8 km/h 29 % 0 mm
14:49 19.4 °C 1.4 °C 1017.2 hPa WNW 1.6 km/h 8 km/h 30 % 0 mm
14:54 19.6 °C 2.9 °C 1017.2 hPa SE 3.2 km/h 6.4 km/h 33 % 0 mm
14:59 19.8 °C 1.7 °C 1017.2 hPa SE 4.8 km/h 8 km/h 30 % 0 mm
15:04 19.7 °C 1.6 °C 1016.8 hPa Calm   8 km/h 30 % 0 mm
15:09 20.1 °C 2.4 °C 1017.2 hPa SSE 1.6 km/h 8 km/h 31 % 0 mm
15:14 20.2 °C 1.6 °C 1016.8 hPa Calm   4.8 km/h 29 % 0 mm
15:24 20.3 °C 2.6 °C 1016.8 hPa Calm   6.4 km/h 31 % 0 mm
15:29 20.3 °C 1.2 °C 1016.8 hPa Calm   6.4 km/h 28 % 0 mm
15:34 20.2 °C 3.4 °C 1016.5 hPa SW 6.4 km/h 6.4 km/h 33 % 0 mm
15:39 20.4 °C 2.2 °C 1016.5 hPa SSW 4.8 km/h 6.4 km/h 30 % 0 mm
15:44 20.3 °C 2.6 °C 1016.5 hPa Calm   6.4 km/h 31 % 0 mm
15:49 20.4 °C 2.7 °C 1016.5 hPa NE 1.6 km/h 8 km/h 31 % 0 mm
15:54 20.7 °C 3 °C 1016.8 hPa Calm   8 km/h 31 % 0 mm
15:59 20.9 °C 3.1 °C 1016.8 hPa SE 3.2 km/h 8 km/h 31 % 0 mm
16:04 20.7 °C 1.5 °C 1016.8 hPa SSE 6.4 km/h 6.4 km/h 28 % 0 mm
16:09 20.2 °C 2.1 °C 1016.5 hPa East 1.6 km/h 9.7 km/h 30 % 0 mm
16:19 19.9 °C 2.3 °C 1016.5 hPa SSE 9.7 km/h 9.7 km/h 31 % 0 mm
16:24 19.9 °C 1.8 °C 1016.5 hPa South 1.6 km/h 11.3 km/h 30 % 0 mm
16:29 19.9 °C 1.8 °C 1016.1 hPa Calm   11.3 km/h 30 % 0 mm
16:34 20.1 °C 2.4 °C 1016.5 hPa SSW 4.8 km/h 11.3 km/h 31 % 0 mm
16:39 19.9 °C 1.8 °C 1016.5 hPa SSW 4.8 km/h 11.3 km/h 30 % 0 mm
16:44 19.7 °C 2.1 °C 1016.1 hPa SE 3.2 km/h 11.3 km/h 31 % 0 mm
16:49 19.7 °C 1.6 °C 1016.1 hPa Calm   11.3 km/h 30 % 0 mm
16:54 19.7 °C 1.6 °C 1016.1 hPa Calm   9.7 km/h 30 % 0 mm
16:59 19.8 °C 2.2 °C 1016.1 hPa SSW 1.6 km/h 9.7 km/h 31 % 0 mm
17:04 19.6 °C 2.5 °C 1016.1 hPa South 4.8 km/h 9.7 km/h 32 % 0 mm
17:10 19.4 °C 2.7 °C 1016.1 hPa SSW 3.2 km/h 8 km/h 33 % 0 mm
17:15 19.3 °C 2.6 °C 1016.1 hPa SSE 1.6 km/h 8 km/h 33 % 0 mm
17:20 19.2 °C 2.1 °C 1016.1 hPa South 1.6 km/h 8 km/h 32 % 0 mm
17:25 19.1 °C 1.6 °C 1016.5 hPa SSW 4.8 km/h 9.7 km/h 31 % 0 mm
17:30 18.9 °C 1.8 °C 1016.5 hPa ESE 6.4 km/h 9.7 km/h 32 % 0 mm
17:35 18.8 °C 1.8 °C 1016.5 hPa South 3.2 km/h 9.7 km/h 32 % 0 mm
17:40 18.7 °C 2.1 °C 1016.1 hPa South 3.2 km/h 9.7 km/h 33 % 0 mm
17:45 18.5 °C 1.9 °C 1016.5 hPa South 1.6 km/h 8 km/h 33 % 0 mm
17:50 18.3 °C 1.7 °C 1016.1 hPa SSW 3.2 km/h 4.8 km/h 33 % 0 mm
17:55 18 °C 1.5 °C 1016.1 hPa Calm   3.2 km/h 33 % 0 mm
18:00 17.8 °C 1.7 °C 1016.5 hPa Calm   3.2 km/h 34 % 0 mm
18:05 17.6 °C 2 °C 1016.5 hPa South 3.2 km/h 3.2 km/h 35 % 0 mm
18:10 17.4 °C 1.8 °C 1016.5 hPa SSE 1.6 km/h 3.2 km/h 35 % 0 mm
18:15 17.2 °C 2 °C 1016.5 hPa South 1.6 km/h 3.2 km/h 36 % 0 mm
18:20 17 °C 2.2 °C 1016.5 hPa South 1.6 km/h 3.2 km/h 37 % 0 mm
18:25 16.8 °C 2.4 °C 1016.8 hPa SSE 1.6 km/h 3.2 km/h 38 % 0 mm
18:30 16.6 °C 2.2 °C 1016.8 hPa South 1.6 km/h 3.2 km/h 38 % 0 mm
18:35 16.4 °C 2.4 °C 1016.8 hPa South 1.6 km/h 3.2 km/h 39 % 0 mm
18:40 16.3 °C 2.3 °C 1016.8 hPa South 1.6 km/h 3.2 km/h 39 % 0 mm
18:45 16.2 °C 2.2 °C 1016.8 hPa Calm   3.2 km/h 39 % 0 mm
18:50 16 °C 2.4 °C 1016.5 hPa SSE 3.2 km/h 3.2 km/h 40 % 0 mm
18:55 15.9 °C 2.3 °C 1016.5 hPa Calm   3.2 km/h 40 % 0 mm
19:00 15.8 °C 2.6 °C 1016.5 hPa Calm   3.2 km/h 41 % 0 mm
19:05 15.6 °C 2.4 °C 1016.5 hPa SSE 1.6 km/h 3.2 km/h 41 % 0 mm
19:10 15.4 °C 2.2 °C 1016.8 hPa Calm   1.6 km/h 41 % 0 mm
19:15 15.1 °C 2.3 °C 1016.8 hPa Calm   1.6 km/h 42 % 0 mm
19:20 14.8 °C 2.7 °C 1016.8 hPa Calm   1.6 km/h 44 % 0 mm
19:25 14.6 °C 2.5 °C 1016.8 hPa Calm     44 % 0 mm
19:30 14.4 °C 2.6 °C 1016.8 hPa Calm     45 % 0 mm
19:35 14.4 °C 3.2 °C 1016.8 hPa East 1.6 km/h 3.2 km/h 47 % 0 mm
19:40 14.6 °C 3.1 °C 1016.8 hPa ESE 1.6 km/h 3.2 km/h 46 % 0 mm
19:45 14.8 °C 3.6 °C 1017.2 hPa SE 1.6 km/h 4.8 km/h 47 % 0 mm
19:50 14.8 °C 3.9 °C 1016.8 hPa Calm   4.8 km/h 48 % 0 mm
19:55 14.6 °C 4.3 °C 1017.2 hPa ESE 1.6 km/h 4.8 km/h 50 % 0 mm
20:00 14.7 °C 4.7 °C 1017.2 hPa SE 3.2 km/h 4.8 km/h 51 % 0 mm
20:05 14.8 °C 5.3 °C 1017.2 hPa Calm   4.8 km/h 53 % 0 mm
20:11 14.7 °C 5.5 °C 1017.2 hPa Calm   4.8 km/h 54 % 0 mm
20:16 14.4 °C 5.5 °C 1017.2 hPa South 1.6 km/h 4.8 km/h 55 % 0 mm
20:21 14.3 °C 6.1 °C 1017.2 hPa SSE 3.2 km/h 6.4 km/h 58 % 0 mm
20:26 14.5 °C 6.3 °C 1017.2 hPa SSE 1.6 km/h 9.7 km/h 58 % 0 mm
20:31 14.4 °C 6.5 °C 1017.2 hPa SE 4.8 km/h 9.7 km/h 59 % 0 mm
20:36 14.4 °C 6.5 °C 1017.2 hPa SE 3.2 km/h 9.7 km/h 59 % 0 mm
20:41 14.4 °C 6.7 °C 1017.2 hPa South 6.4 km/h 9.7 km/h 60 % 0 mm
20:46 14.4 °C 6.7 °C 1017.2 hPa South 6.4 km/h 9.7 km/h 60 % 0 mm
20:51 14.3 °C 6.9 °C 1017.2 hPa SSW 3.2 km/h 9.7 km/h 61 % 0 mm
20:56 14.2 °C 6.8 °C 1017.2 hPa South 3.2 km/h 8 km/h 61 % 0 mm
21:01 14.2 °C 6.8 °C 1017.2 hPa SW 1.6 km/h 8 km/h 61 % 0 mm
21:06 14.1 °C 6.9 °C 1017.2 hPa SSW 3.2 km/h 8 km/h 62 % 0 mm
21:11 14 °C 6.8 °C 1017.2 hPa SE 1.6 km/h 4.8 km/h 62 % 0 mm
21:16 13.9 °C 6.7 °C 1017.2 hPa Calm   4.8 km/h 62 % 0 mm
21:21 13.8 °C 6.9 °C 1017.2 hPa South 1.6 km/h 4.8 km/h 63 % 0 mm
21:26 13.7 °C 6.8 °C 1017.2 hPa SE 3.2 km/h 4.8 km/h 63 % 0 mm
21:31 13.6 °C 6.9 °C 1017.2 hPa SSE 1.6 km/h 3.2 km/h 64 % 0 mm
21:36 13.6 °C 7.1 °C 1017.2 hPa SE 1.6 km/h 3.2 km/h 65 % 0 mm
21:41 13.4 °C 7 °C 1017.2 hPa SE 1.6 km/h 3.2 km/h 65 % 0 mm
21:46 13.3 °C 6.9 °C 1017.2 hPa Calm   3.2 km/h 65 % 0 mm
21:51 13.2 °C 7 °C 1017.2 hPa South 1.6 km/h 3.2 km/h 66 % 0 mm
21:56 13.1 °C 6.9 °C 1017.2 hPa South 1.6 km/h 3.2 km/h 66 % 0 mm
22:01 13 °C 7 °C 1017.2 hPa SSW 1.6 km/h 4.8 km/h 67 % 0 mm
22:06 12.9 °C 6.9 °C 1017.2 hPa SSW 3.2 km/h 4.8 km/h 67 % 0 mm
22:11 12.9 °C 6.9 °C 1017.2 hPa SSW 1.6 km/h 4.8 km/h 67 % 0 mm
22:17 12.8 °C 7 °C 1017.2 hPa South 1.6 km/h 3.2 km/h 68 % 0 mm
22:21 12.8 °C 7 °C 1017.2 hPa SE 1.6 km/h 4.8 km/h 68 % 0 mm
22:27 12.8 °C 7 °C 1017.2 hPa SW 1.6 km/h 4.8 km/h 68 % 0 mm
22:32 12.8 °C 7 °C 1016.8 hPa SSE 1.6 km/h 4.8 km/h 68 % 0 mm
22:37 12.8 °C 7 °C 1016.8 hPa Calm   4.8 km/h 68 % 0 mm
22:42 12.7 °C 6.9 °C 1016.8 hPa SSE 3.2 km/h 4.8 km/h 68 % 0 mm
22:47 12.6 °C 7.1 °C 1016.8 hPa South 1.6 km/h 4.8 km/h 69 % 0 mm
22:52 12.6 °C 7.1 °C 1016.8 hPa South 3.2 km/h 4.8 km/h 69 % 0 mm
22:57 12.5 °C 7 °C 1016.8 hPa Calm   4.8 km/h 69 % 0 mm
23:02 12.4 °C 7.1 °C 1016.8 hPa SSE 3.2 km/h 3.2 km/h 70 % 0 mm
23:07 12.4 °C 7.1 °C 1016.8 hPa SSE 1.6 km/h 4.8 km/h 70 % 0 mm
23:12 12.3 °C 7 °C 1016.8 hPa SSW 1.6 km/h 4.8 km/h 70 % 0 mm
23:17 12.3 °C 7 °C 1016.8 hPa South 1.6 km/h 4.8 km/h 70 % 0 mm
23:22 12.2 °C 6.9 °C 1016.8 hPa Calm   3.2 km/h 70 % 0 mm
23:27 12.1 °C 7 °C 1016.5 hPa SSE 1.6 km/h 3.2 km/h 71 % 0 mm
23:32 12 °C 6.9 °C 1016.5 hPa Calm   1.6 km/h 71 % 0 mm
23:37 11.9 °C 6.8 °C 1016.5 hPa Calm   1.6 km/h 71 % 0 mm
23:42 11.8 °C 6.9 °C 1016.5 hPa Calm   1.6 km/h 72 % 0 mm
23:47 11.6 °C 6.7 °C 1016.5 hPa Calm   1.6 km/h 72 % 0 mm
23:52 11.4 °C 6.5 °C 1016.5 hPa Calm   1.6 km/h 72 % 0 mm
23:57 11.1 °C 6.4 °C 1016.5 hPa Calm   1.6 km/h 73 % 0 mm
Spring, Texas: Villages of Bridgestone
Compliments of Weather Underground - 2.75 mb

Script developed by  Jim McMurry - jmcmurry@mwt.net Adapted for the template by  Wim van der Kuil - Leuven-Template.eu

You find our weather info also at:

UK Metoffice

WeatherCloud

Weather Underground

Mid-South Weather Network

AWEKAS

Citizen Weather Observer Program (CWOP)

HAMweather, WeatherForYou, PWS Weather

Equipment we use:

Weather-station
Davis Vantage Vue

Weather-program
Meteohub

Weather-server
Debian 7.9 x86 (Guest)

Provider
DreamHost

Davis Vantage Vue

Meteohub

Debian 7.9 x86 (Guest)

DreamHost